Tuscarora, Illinois
Current Conditions -  °F | °C
As of 6:09 PM on Friday 21 Nov 2014 (Local Time) from KPIA Reporting Station
Overcast Overcast  
Wind Chill: 29°   Ceiling: 2600
Heat Index: 37°   Visibility: 10mi
Dew Point: 13°   Wind: 13mph
Humidity: 37%   Direction: 170°S
Pressure: 30.29"   Gusts: NA
Location:  40.6465°N, 89.6859°W
Report Text: KPIA 220009Z 17011KT 10SM BKN026 OVC034 03/M11 A3029 RMK AO2 T00281106
Loading
Personal Weather Stations






























Interactive Weather Map New forecast layout! Learn more

10-Day Weather Forecast

Advertisements
Track Severe Weather on mobile